sensor_id;sensor_type;location;lat;lon;timestamp;P1;durP1;ratioP1;P2;durP2;ratioP2
13834;SDS011;6988;52.614;13.500;2023-08-21T00:00:56;21.07;;;17.53;;
13834;SDS011;6988;52.614;13.500;2023-08-21T00:05:47;20.63;;;17.20;;
13834;SDS011;6988;52.614;13.500;2023-08-21T00:10:39;18.83;;;15.70;;
13834;SDS011;6988;52.614;13.500;2023-08-21T00:15:31;17.70;;;14.30;;
13834;SDS011;6988;52.614;13.500;2023-08-21T00:20:25;18.40;;;14.30;;
13834;SDS011;6988;52.614;13.500;2023-08-21T00:25:17;17.57;;;13.30;;
13834;SDS011;6988;52.614;13.500;2023-08-21T00:30:09;16.97;;;12.67;;
13834;SDS011;6988;52.614;13.500;2023-08-21T00:35:06;17.53;;;13.13;;
13834;SDS011;6988;52.614;13.500;2023-08-21T00:40:00;16.90;;;13.13;;
13834;SDS011;6988;52.614;13.500;2023-08-21T00:44:52;14.37;;;12.17;;
13834;SDS011;6988;52.614;13.500;2023-08-21T00:49:44;14.77;;;12.37;;
13834;SDS011;6988;52.614;13.500;2023-08-21T00:54:36;16.10;;;12.30;;
13834;SDS011;6988;52.614;13.500;2023-08-21T00:59:31;14.93;;;12.53;;
13834;SDS011;6988;52.614;13.500;2023-08-21T01:04:23;15.87;;;13.37;;
13834;SDS011;6988;52.614;13.500;2023-08-21T01:09:17;17.40;;;13.77;;
13834;SDS011;6988;52.614;13.500;2023-08-21T01:14:22;17.23;;;13.27;;
13834;SDS011;6988;52.614;13.500;2023-08-21T01:19:25;17.97;;;14.23;;
13834;SDS011;6988;52.614;13.500;2023-08-21T01:24:27;16.30;;;14.03;;
13834;SDS011;6988;52.614;13.500;2023-08-21T01:29:19;19.00;;;13.93;;
13834;SDS011;6988;52.614;13.500;2023-08-21T01:34:12;17.10;;;12.57;;
13834;SDS011;6988;52.614;13.500;2023-08-21T01:39:06;16.43;;;12.80;;
13834;SDS011;6988;52.614;13.500;2023-08-21T01:44:00;16.90;;;13.87;;
13834;SDS011;6988;52.614;13.500;2023-08-21T01:48:52;16.13;;;14.43;;
13834;SDS011;6988;52.614;13.500;2023-08-21T01:53:44;15.93;;;13.53;;
13834;SDS011;6988;52.614;13.500;2023-08-21T01:58:36;17.30;;;13.30;;
13834;SDS011;6988;52.614;13.500;2023-08-21T02:03:29;15.70;;;13.50;;
13834;SDS011;6988;52.614;13.500;2023-08-21T02:08:21;16.60;;;13.80;;
13834;SDS011;6988;52.614;13.500;2023-08-21T02:13:14;16.30;;;14.60;;
13834;SDS011;6988;52.614;13.500;2023-08-21T02:18:06;17.47;;;14.30;;
13834;SDS011;6988;52.614;13.500;2023-08-21T02:22:59;17.40;;;15.17;;
13834;SDS011;6988;52.614;13.500;2023-08-21T02:27:51;18.53;;;14.80;;
13834;SDS011;6988;52.614;13.500;2023-08-21T02:32:43;19.97;;;15.10;;
13834;SDS011;6988;52.614;13.500;2023-08-21T02:37:35;17.93;;;15.07;;
13834;SDS011;6988;52.614;13.500;2023-08-21T02:42:30;18.97;;;16.20;;
13834;SDS011;6988;52.614;13.500;2023-08-21T02:47:22;17.63;;;15.00;;
13834;SDS011;6988;52.614;13.500;2023-08-21T02:52:13;18.10;;;15.17;;
13834;SDS011;6988;52.614;13.500;2023-08-21T02:57:05;18.37;;;13.67;;
13834;SDS011;6988;52.614;13.500;2023-08-21T03:01:59;16.43;;;13.73;;
13834;SDS011;6988;52.614;13.500;2023-08-21T03:06:50;15.93;;;12.67;;
13834;SDS011;6988;52.614;13.500;2023-08-21T03:11:42;15.37;;;13.27;;
13834;SDS011;6988;52.614;13.500;2023-08-21T03:16:34;16.70;;;14.23;;
13834;SDS011;6988;52.614;13.500;2023-08-21T03:21:27;14.30;;;12.87;;
13834;SDS011;6988;52.614;13.500;2023-08-21T03:26:20;13.33;;;11.97;;
13834;SDS011;6988;52.614;13.500;2023-08-21T03:31:12;17.20;;;14.70;;
13834;SDS011;6988;52.614;13.500;2023-08-21T03:36:06;13.77;;;12.37;;
13834;SDS011;6988;52.614;13.500;2023-08-21T03:41:01;15.17;;;13.30;;
13834;SDS011;6988;52.614;13.500;2023-08-21T03:45:56;15.83;;;14.13;;
13834;SDS011;6988;52.614;13.500;2023-08-21T03:50:48;15.90;;;14.13;;
13834;SDS011;6988;52.614;13.500;2023-08-21T03:55:42;14.53;;;13.03;;
13834;SDS011;6988;52.614;13.500;2023-08-21T04:00:35;13.70;;;12.30;;
13834;SDS011;6988;52.614;13.500;2023-08-21T04:05:26;14.20;;;12.57;;
13834;SDS011;6988;52.614;13.500;2023-08-21T04:10:18;16.30;;;12.33;;
13834;SDS011;6988;52.614;13.500;2023-08-21T04:15:10;14.27;;;12.73;;
13834;SDS011;6988;52.614;13.500;2023-08-21T04:20:03;14.73;;;12.23;;
13834;SDS011;6988;52.614;13.500;2023-08-21T04:24:59;13.80;;;12.30;;
13834;SDS011;6988;52.614;13.500;2023-08-21T04:29:51;13.73;;;12.27;;
13834;SDS011;6988;52.614;13.500;2023-08-21T04:34:44;15.43;;;12.47;;
13834;SDS011;6988;52.614;13.500;2023-08-21T04:39:37;14.80;;;12.90;;
13834;SDS011;6988;52.614;13.500;2023-08-21T04:44:30;14.63;;;13.00;;
13834;SDS011;6988;52.614;13.500;2023-08-21T04:49:22;13.50;;;12.10;;
13834;SDS011;6988;52.614;13.500;2023-08-21T04:54:14;14.37;;;12.87;;
13834;SDS011;6988;52.614;13.500;2023-08-21T04:59:07;13.00;;;11.40;;
13834;SDS011;6988;52.614;13.500;2023-08-21T05:03:59;13.07;;;11.43;;
13834;SDS011;6988;52.614;13.500;2023-08-21T05:08:51;16.47;;;11.60;;
13834;SDS011;6988;52.614;13.500;2023-08-21T05:13:43;13.20;;;11.17;;
13834;SDS011;6988;52.614;13.500;2023-08-21T05:18:39;13.27;;;11.10;;
13834;SDS011;6988;52.614;13.500;2023-08-21T05:23:31;12.60;;;11.00;;
13834;SDS011;6988;52.614;13.500;2023-08-21T05:28:27;16.37;;;11.30;;
13834;SDS011;6988;52.614;13.500;2023-08-21T05:33:19;14.33;;;11.33;;
13834;SDS011;6988;52.614;13.500;2023-08-21T05:38:15;15.75;;;11.00;;
13834;SDS011;6988;52.614;13.500;2023-08-21T05:43:08;13.10;;;10.70;;
13834;SDS011;6988;52.614;13.500;2023-08-21T05:48:02;11.13;;;9.95;;
13834;SDS011;6988;52.614;13.500;2023-08-21T05:52:55;13.90;;;10.97;;
13834;SDS011;6988;52.614;13.500;2023-08-21T05:57:49;13.77;;;9.97;;
13834;SDS011;6988;52.614;13.500;2023-08-21T06:02:43;14.68;;;10.27;;
13834;SDS011;6988;52.614;13.500;2023-08-21T06:07:51;12.70;;;10.50;;
13834;SDS011;6988;52.614;13.500;2023-08-21T06:12:43;12.05;;;10.43;;
13834;SDS011;6988;52.614;13.500;2023-08-21T06:17:37;10.57;;;9.57;;
13834;SDS011;6988;52.614;13.500;2023-08-21T06:22:30;11.65;;;9.48;;
13834;SDS011;6988;52.614;13.500;2023-08-21T06:27:22;11.35;;;9.73;;
13834;SDS011;6988;52.614;13.500;2023-08-21T06:32:14;12.88;;;11.02;;
13834;SDS011;6988;52.614;13.500;2023-08-21T06:37:08;16.20;;;12.63;;
13834;SDS011;6988;52.614;13.500;2023-08-21T06:42:00;15.82;;;12.10;;
13834;SDS011;6988;52.614;13.500;2023-08-21T06:47:00;14.35;;;11.90;;
13834;SDS011;6988;52.614;13.500;2023-08-21T06:51:52;16.67;;;11.48;;
13834;SDS011;6988;52.614;13.500;2023-08-21T06:56:45;13.98;;;12.27;;
13834;SDS011;6988;52.614;13.500;2023-08-21T07:01:38;12.75;;;11.27;;
13834;SDS011;6988;52.614;13.500;2023-08-21T07:06:30;14.77;;;11.23;;
13834;SDS011;6988;52.614;13.500;2023-08-21T07:11:22;12.40;;;10.93;;
13834;SDS011;6988;52.614;13.500;2023-08-21T07:16:15;14.77;;;11.80;;
13834;SDS011;6988;52.614;13.500;2023-08-21T07:21:07;17.63;;;11.82;;
13834;SDS011;6988;52.614;13.500;2023-08-21T07:25:59;11.88;;;10.52;;
13834;SDS011;6988;52.614;13.500;2023-08-21T07:30:54;15.82;;;10.82;;
13834;SDS011;6988;52.614;13.500;2023-08-21T07:35:48;12.00;;;10.38;;
13834;SDS011;6988;52.614;13.500;2023-08-21T07:40:48;11.98;;;9.80;;
13834;SDS011;6988;52.614;13.500;2023-08-21T07:45:40;13.18;;;9.00;;
13834;SDS011;6988;52.614;13.500;2023-08-21T07:50:32;10.10;;;7.65;;
13834;SDS011;6988;52.614;13.500;2023-08-21T07:55:25;8.95;;;7.28;;
13834;SDS011;6988;52.614;13.500;2023-08-21T08:00:17;8.27;;;6.07;;
13834;SDS011;6988;52.614;13.500;2023-08-21T08:05:09;9.43;;;5.70;;
13834;SDS011;6988;52.614;13.500;2023-08-21T08:10:01;8.15;;;5.85;;
13834;SDS011;6988;52.614;13.500;2023-08-21T08:14:54;6.55;;;5.43;;
13834;SDS011;6988;52.614;13.500;2023-08-21T08:19:46;10.45;;;5.85;;
13834;SDS011;6988;52.614;13.500;2023-08-21T08:24:38;5.72;;;4.10;;
13834;SDS011;6988;52.614;13.500;2023-08-21T08:29:31;6.50;;;3.55;;
13834;SDS011;6988;52.614;13.500;2023-08-21T08:34:24;4.53;;;3.28;;
13834;SDS011;6988;52.614;13.500;2023-08-21T08:39:16;5.70;;;3.20;;
13834;SDS011;6988;52.614;13.500;2023-08-21T08:44:08;3.95;;;2.92;;
13834;SDS011;6988;52.614;13.500;2023-08-21T08:49:00;4.10;;;1.98;;
13834;SDS011;6988;52.614;13.500;2023-08-21T08:53:54;3.65;;;1.52;;
13834;SDS011;6988;52.614;13.500;2023-08-21T08:58:49;3.38;;;1.60;;
13834;SDS011;6988;52.614;13.500;2023-08-21T09:03:41;2.25;;;1.60;;
13834;SDS011;6988;52.614;13.500;2023-08-21T09:08:33;8.27;;;2.22;;
13834;SDS011;6988;52.614;13.500;2023-08-21T09:13:26;2.10;;;1.27;;
13834;SDS011;6988;52.614;13.500;2023-08-21T09:18:18;3.05;;;1.30;;
13834;SDS011;6988;52.614;13.500;2023-08-21T09:23:12;2.60;;;1.45;;
13834;SDS011;6988;52.614;13.500;2023-08-21T09:28:06;2.45;;;1.30;;
13834;SDS011;6988;52.614;13.500;2023-08-21T09:33:00;2.45;;;1.50;;
13834;SDS011;6988;52.614;13.500;2023-08-21T09:37:55;2.78;;;1.58;;
13834;SDS011;6988;52.614;13.500;2023-08-21T09:42:48;2.40;;;1.60;;
13834;SDS011;6988;52.614;13.500;2023-08-21T09:47:44;3.25;;;1.75;;
13834;SDS011;6988;52.614;13.500;2023-08-21T09:52:37;2.08;;;1.50;;
13834;SDS011;6988;52.614;13.500;2023-08-21T09:57:29;5.35;;;1.40;;
13834;SDS011;6988;52.614;13.500;2023-08-21T10:02:22;2.85;;;1.33;;
13834;SDS011;6988;52.614;13.500;2023-08-21T10:07:15;3.22;;;1.58;;
13834;SDS011;6988;52.614;13.500;2023-08-21T10:12:13;3.60;;;1.52;;
13834;SDS011;6988;52.614;13.500;2023-08-21T10:17:08;4.07;;;1.45;;
13834;SDS011;6988;52.614;13.500;2023-08-21T10:22:01;4.57;;;1.30;;
13834;SDS011;6988;52.614;13.500;2023-08-21T10:26:53;3.30;;;1.40;;
13834;SDS011;6988;52.614;13.500;2023-08-21T10:31:46;4.55;;;1.60;;
13834;SDS011;6988;52.614;13.500;2023-08-21T10:42:04;4.88;;;1.38;;
13834;SDS011;6988;52.614;13.500;2023-08-21T10:47:11;4.57;;;1.52;;
13834;SDS011;6988;52.614;13.500;2023-08-21T10:52:07;3.38;;;1.20;;
13834;SDS011;6988;52.614;13.500;2023-08-21T10:57:01;2.67;;;1.20;;
13834;SDS011;6988;52.614;13.500;2023-08-21T11:01:53;3.42;;;1.50;;
13834;SDS011;6988;52.614;13.500;2023-08-21T11:06:50;2.83;;;1.40;;
13834;SDS011;6988;52.614;13.500;2023-08-21T11:11:43;2.85;;;1.45;;
13834;SDS011;6988;52.614;13.500;2023-08-21T11:16:35;4.03;;;1.10;;
13834;SDS011;6988;52.614;13.500;2023-08-21T11:21:27;2.40;;;1.13;;
13834;SDS011;6988;52.614;13.500;2023-08-21T11:26:20;3.25;;;1.20;;
13834;SDS011;6988;52.614;13.500;2023-08-21T11:31:13;2.38;;;1.20;;
13834;SDS011;6988;52.614;13.500;2023-08-21T11:36:05;5.43;;;1.05;;
13834;SDS011;6988;52.614;13.500;2023-08-21T11:40:58;4.22;;;1.25;;
13834;SDS011;6988;52.614;13.500;2023-08-21T11:45:53;3.45;;;1.20;;
13834;SDS011;6988;52.614;13.500;2023-08-21T11:50:47;7.30;;;1.20;;
13834;SDS011;6988;52.614;13.500;2023-08-21T11:55:39;3.53;;;1.17;;
13834;SDS011;6988;52.614;13.500;2023-08-21T12:00:32;3.13;;;1.20;;
13834;SDS011;6988;52.614;13.500;2023-08-21T12:05:25;3.35;;;1.23;;
13834;SDS011;6988;52.614;13.500;2023-08-21T12:10:21;4.50;;;1.27;;
13834;SDS011;6988;52.614;13.500;2023-08-21T12:15:14;3.60;;;1.15;;
13834;SDS011;6988;52.614;13.500;2023-08-21T12:20:06;2.75;;;1.10;;
13834;SDS011;6988;52.614;13.500;2023-08-21T12:25:03;7.45;;;1.38;;
13834;SDS011;6988;52.614;13.500;2023-08-21T12:29:56;2.28;;;1.02;;
13834;SDS011;6988;52.614;13.500;2023-08-21T12:34:47;3.45;;;1.20;;
13834;SDS011;6988;52.614;13.500;2023-08-21T12:39:39;2.45;;;1.10;;
13834;SDS011;6988;52.614;13.500;2023-08-21T12:44:32;2.47;;;1.30;;
13834;SDS011;6988;52.614;13.500;2023-08-21T12:49:24;3.40;;;1.35;;
13834;SDS011;6988;52.614;13.500;2023-08-21T12:54:16;4.10;;;1.30;;
13834;SDS011;6988;52.614;13.500;2023-08-21T12:59:07;2.80;;;1.08;;
13834;SDS011;6988;52.614;13.500;2023-08-21T13:04:01;2.45;;;1.05;;
13834;SDS011;6988;52.614;13.500;2023-08-21T13:08:54;2.95;;;1.10;;
13834;SDS011;6988;52.614;13.500;2023-08-21T13:13:45;2.85;;;0.82;;
13834;SDS011;6988;52.614;13.500;2023-08-21T13:18:37;1.80;;;0.70;;
13834;SDS011;6988;52.614;13.500;2023-08-21T13:23:30;4.60;;;1.15;;
13834;SDS011;6988;52.614;13.500;2023-08-21T13:28:24;2.08;;;0.65;;
13834;SDS011;6988;52.614;13.500;2023-08-21T13:33:15;5.60;;;1.10;;
13834;SDS011;6988;52.614;13.500;2023-08-21T13:38:08;3.08;;;1.02;;
13834;SDS011;6988;52.614;13.500;2023-08-21T13:43:01;3.38;;;1.02;;
13834;SDS011;6988;52.614;13.500;2023-08-21T13:47:53;4.32;;;1.00;;
13834;SDS011;6988;52.614;13.500;2023-08-21T13:52:45;2.22;;;1.10;;
13834;SDS011;6988;52.614;13.500;2023-08-21T13:57:37;2.92;;;1.13;;
13834;SDS011;6988;52.614;13.500;2023-08-21T14:02:31;3.63;;;1.27;;
13834;SDS011;6988;52.614;13.500;2023-08-21T14:07:23;2.60;;;0.80;;
13834;SDS011;6988;52.614;13.500;2023-08-21T14:12:14;3.15;;;1.08;;
13834;SDS011;6988;52.614;13.500;2023-08-21T14:17:06;3.72;;;1.15;;
13834;SDS011;6988;52.614;13.500;2023-08-21T14:21:59;2.40;;;1.20;;
13834;SDS011;6988;52.614;13.500;2023-08-21T14:26:51;2.85;;;1.20;;
13834;SDS011;6988;52.614;13.500;2023-08-21T14:31:43;3.15;;;1.17;;
13834;SDS011;6988;52.614;13.500;2023-08-21T14:36:36;3.92;;;1.13;;
13834;SDS011;6988;52.614;13.500;2023-08-21T14:41:29;2.75;;;1.00;;
13834;SDS011;6988;52.614;13.500;2023-08-21T14:46:21;2.90;;;1.13;;
13834;SDS011;6988;52.614;13.500;2023-08-21T14:51:13;3.58;;;1.20;;
13834;SDS011;6988;52.614;13.500;2023-08-21T14:56:05;2.78;;;1.02;;
13834;SDS011;6988;52.614;13.500;2023-08-21T15:00:58;3.58;;;1.00;;
13834;SDS011;6988;52.614;13.500;2023-08-21T15:05:50;4.07;;;1.30;;
13834;SDS011;6988;52.614;13.500;2023-08-21T15:10:42;4.38;;;1.30;;
13834;SDS011;6988;52.614;13.500;2023-08-21T15:15:33;2.92;;;1.13;;
13834;SDS011;6988;52.614;13.500;2023-08-21T15:20:26;3.50;;;1.30;;
13834;SDS011;6988;52.614;13.500;2023-08-21T15:25:18;2.75;;;1.10;;
13834;SDS011;6988;52.614;13.500;2023-08-21T15:30:11;2.58;;;1.10;;
13834;SDS011;6988;52.614;13.500;2023-08-21T15:35:03;2.63;;;1.17;;
13834;SDS011;6988;52.614;13.500;2023-08-21T15:39:58;2.67;;;1.00;;
13834;SDS011;6988;52.614;13.500;2023-08-21T15:44:50;1.98;;;1.10;;
13834;SDS011;6988;52.614;13.500;2023-08-21T15:49:41;4.00;;;1.10;;
13834;SDS011;6988;52.614;13.500;2023-08-21T15:54:33;5.80;;;1.33;;
13834;SDS011;6988;52.614;13.500;2023-08-21T15:59:26;4.50;;;1.20;;
13834;SDS011;6988;52.614;13.500;2023-08-21T16:04:18;3.65;;;1.10;;
13834;SDS011;6988;52.614;13.500;2023-08-21T16:09:10;3.00;;;1.20;;
13834;SDS011;6988;52.614;13.500;2023-08-21T16:14:02;3.08;;;1.20;;
13834;SDS011;6988;52.614;13.500;2023-08-21T16:18:59;4.03;;;1.13;;
13834;SDS011;6988;52.614;13.500;2023-08-21T16:23:50;3.30;;;1.30;;
13834;SDS011;6988;52.614;13.500;2023-08-21T16:28:43;2.97;;;1.13;;
13834;SDS011;6988;52.614;13.500;2023-08-21T16:33:35;3.22;;;1.02;;
13834;SDS011;6988;52.614;13.500;2023-08-21T16:38:28;3.47;;;1.42;;
13834;SDS011;6988;52.614;13.500;2023-08-21T16:43:19;2.67;;;1.10;;
13834;SDS011;6988;52.614;13.500;2023-08-21T16:48:11;2.55;;;1.05;;
13834;SDS011;6988;52.614;13.500;2023-08-21T16:53:03;2.88;;;0.90;;
13834;SDS011;6988;52.614;13.500;2023-08-21T16:57:56;3.55;;;1.30;;
13834;SDS011;6988;52.614;13.500;2023-08-21T17:02:48;4.43;;;1.23;;
13834;SDS011;6988;52.614;13.500;2023-08-21T17:07:40;1.60;;;0.90;;
13834;SDS011;6988;52.614;13.500;2023-08-21T17:12:34;1.35;;;1.05;;
13834;SDS011;6988;52.614;13.500;2023-08-21T17:17:27;1.92;;;0.70;;
13834;SDS011;6988;52.614;13.500;2023-08-21T17:22:19;2.58;;;1.13;;
13834;SDS011;6988;52.614;13.500;2023-08-21T17:27:11;2.63;;;0.85;;
13834;SDS011;6988;52.614;13.500;2023-08-21T17:32:08;5.10;;;0.90;;
13834;SDS011;6988;52.614;13.500;2023-08-21T17:37:02;2.80;;;1.00;;
13834;SDS011;6988;52.614;13.500;2023-08-21T17:41:54;1.98;;;1.00;;
13834;SDS011;6988;52.614;13.500;2023-08-21T17:46:46;3.33;;;1.00;;
13834;SDS011;6988;52.614;13.500;2023-08-21T17:51:37;4.97;;;1.38;;
13834;SDS011;6988;52.614;13.500;2023-08-21T17:56:31;3.47;;;1.00;;
13834;SDS011;6988;52.614;13.500;2023-08-21T18:01:22;4.35;;;1.02;;
13834;SDS011;6988;52.614;13.500;2023-08-21T18:06:14;2.13;;;0.90;;
13834;SDS011;6988;52.614;13.500;2023-08-21T18:11:08;2.97;;;1.05;;
13834;SDS011;6988;52.614;13.500;2023-08-21T18:16:01;6.35;;;1.52;;
13834;SDS011;6988;52.614;13.500;2023-08-21T18:20:54;2.35;;;1.08;;
13834;SDS011;6988;52.614;13.500;2023-08-21T18:25:46;4.50;;;1.30;;
13834;SDS011;6988;52.614;13.500;2023-08-21T18:30:39;2.72;;;1.10;;
13834;SDS011;6988;52.614;13.500;2023-08-21T18:35:33;2.78;;;1.10;;
13834;SDS011;6988;52.614;13.500;2023-08-21T18:40:26;4.10;;;1.52;;
13834;SDS011;6988;52.614;13.500;2023-08-21T18:45:18;6.57;;;1.77;;
13834;SDS011;6988;52.614;13.500;2023-08-21T18:50:10;8.68;;;1.45;;
13834;SDS011;6988;52.614;13.500;2023-08-21T18:55:04;7.68;;;1.95;;
13834;SDS011;6988;52.614;13.500;2023-08-21T18:59:57;4.07;;;1.45;;
13834;SDS011;6988;52.614;13.500;2023-08-21T19:04:49;3.55;;;1.48;;
13834;SDS011;6988;52.614;13.500;2023-08-21T19:09:41;3.05;;;1.77;;
13834;SDS011;6988;52.614;13.500;2023-08-21T19:14:34;3.83;;;1.95;;
13834;SDS011;6988;52.614;13.500;2023-08-21T19:19:26;2.15;;;1.55;;
13834;SDS011;6988;52.614;13.500;2023-08-21T19:24:18;4.43;;;1.70;;
13834;SDS011;6988;52.614;13.500;2023-08-21T19:29:09;2.63;;;1.30;;
13834;SDS011;6988;52.614;13.500;2023-08-21T19:34:02;4.88;;;1.30;;
13834;SDS011;6988;52.614;13.500;2023-08-21T19:38:54;4.38;;;1.58;;
13834;SDS011;6988;52.614;13.500;2023-08-21T19:43:46;4.68;;;1.50;;
13834;SDS011;6988;52.614;13.500;2023-08-21T19:48:38;4.85;;;1.85;;
13834;SDS011;6988;52.614;13.500;2023-08-21T19:53:31;3.25;;;1.90;;
13834;SDS011;6988;52.614;13.500;2023-08-21T19:58:23;2.90;;;1.40;;
13834;SDS011;6988;52.614;13.500;2023-08-21T20:03:15;3.13;;;1.50;;
13834;SDS011;6988;52.614;13.500;2023-08-21T20:08:06;4.38;;;1.70;;
13834;SDS011;6988;52.614;13.500;2023-08-21T20:12:59;3.33;;;1.50;;
13834;SDS011;6988;52.614;13.500;2023-08-21T20:17:51;2.42;;;1.52;;
13834;SDS011;6988;52.614;13.500;2023-08-21T20:22:43;5.88;;;1.75;;
13834;SDS011;6988;52.614;13.500;2023-08-21T20:27:35;3.37;;;1.33;;
13834;SDS011;6988;52.614;13.500;2023-08-21T20:32:28;5.23;;;1.97;;
13834;SDS011;6988;52.614;13.500;2023-08-21T20:37:21;3.67;;;1.77;;
13834;SDS011;6988;52.614;13.500;2023-08-21T20:42:13;3.43;;;1.90;;
13834;SDS011;6988;52.614;13.500;2023-08-21T20:47:06;3.80;;;1.67;;
13834;SDS011;6988;52.614;13.500;2023-08-21T20:51:59;2.33;;;1.43;;
13834;SDS011;6988;52.614;13.500;2023-08-21T20:56:51;2.70;;;1.40;;
13834;SDS011;6988;52.614;13.500;2023-08-21T21:01:42;3.23;;;1.43;;
13834;SDS011;6988;52.614;13.500;2023-08-21T21:06:34;3.63;;;1.50;;
13834;SDS011;6988;52.614;13.500;2023-08-21T21:11:28;4.17;;;1.50;;
13834;SDS011;6988;52.614;13.500;2023-08-21T21:16:19;4.40;;;1.63;;
13834;SDS011;6988;52.614;13.500;2023-08-21T21:21:11;6.77;;;1.80;;
13834;SDS011;6988;52.614;13.500;2023-08-21T21:26:03;2.83;;;1.50;;
13834;SDS011;6988;52.614;13.500;2023-08-21T21:30:56;3.37;;;1.67;;
13834;SDS011;6988;52.614;13.500;2023-08-21T21:35:49;3.77;;;1.70;;
13834;SDS011;6988;52.614;13.500;2023-08-21T21:40:41;3.53;;;1.83;;
13834;SDS011;6988;52.614;13.500;2023-08-21T22:03:59;5.67;;;2.20;;
13834;SDS011;6988;52.614;13.500;2023-08-21T22:08:51;5.07;;;2.10;;
13834;SDS011;6988;52.614;13.500;2023-08-21T22:13:43;4.77;;;2.00;;
13834;SDS011;6988;52.614;13.500;2023-08-21T22:18:34;6.27;;;2.00;;
13834;SDS011;6988;52.614;13.500;2023-08-21T22:23:28;6.47;;;2.30;;
13834;SDS011;6988;52.614;13.500;2023-08-21T22:28:20;5.07;;;2.10;;
13834;SDS011;6988;52.614;13.500;2023-08-21T22:33:11;4.20;;;1.97;;
13834;SDS011;6988;52.614;13.500;2023-08-21T22:38:03;3.10;;;1.93;;
13834;SDS011;6988;52.614;13.500;2023-08-21T22:42:56;4.07;;;2.00;;
13834;SDS011;6988;52.614;13.500;2023-08-21T22:47:48;4.63;;;2.10;;
13834;SDS011;6988;52.614;13.500;2023-08-21T22:52:40;5.70;;;2.40;;
13834;SDS011;6988;52.614;13.500;2023-08-21T22:57:32;5.13;;;2.40;;
13834;SDS011;6988;52.614;13.500;2023-08-21T23:02:26;2.90;;;2.27;;
13834;SDS011;6988;52.614;13.500;2023-08-21T23:07:18;7.17;;;2.27;;
13834;SDS011;6988;52.614;13.500;2023-08-21T23:12:09;5.43;;;2.07;;
13834;SDS011;6988;52.614;13.500;2023-08-21T23:17:02;4.07;;;1.90;;
13834;SDS011;6988;52.614;13.500;2023-08-21T23:21:56;4.17;;;1.90;;
13834;SDS011;6988;52.614;13.500;2023-08-21T23:26:48;7.17;;;2.60;;
13834;SDS011;6988;52.614;13.500;2023-08-21T23:31:40;5.70;;;2.50;;
13834;SDS011;6988;52.614;13.500;2023-08-21T23:36:31;2.87;;;2.00;;
13834;SDS011;6988;52.614;13.500;2023-08-21T23:41:24;4.97;;;2.00;;
13834;SDS011;6988;52.614;13.500;2023-08-21T23:46:16;3.67;;;1.90;;
13834;SDS011;6988;52.614;13.500;2023-08-21T23:51:09;4.83;;;2.17;;
13834;SDS011;6988;52.614;13.500;2023-08-21T23:56:03;4.10;;;2.10;;
